sensor_id;sensor_type;location;lat;lon;timestamp;temperature;humidity
28189;DHT22;15471;51.166;4.470;2023-05-27T00:01:06;11.80;99.90
28189;DHT22;15471;51.166;4.470;2023-05-27T00:03:32;11.80;99.90
28189;DHT22;15471;51.166;4.470;2023-05-27T00:06:00;11.60;99.90
28189;DHT22;15471;51.166;4.470;2023-05-27T00:08:26;11.60;99.90
28189;DHT22;15471;51.166;4.470;2023-05-27T00:10:52;11.70;99.90
28189;DHT22;15471;51.166;4.470;2023-05-27T00:13:18;11.70;99.90
28189;DHT22;15471;51.166;4.470;2023-05-27T00:15:43;11.70;99.90
28189;DHT22;15471;51.166;4.470;2023-05-27T00:18:10;11.70;99.90
28189;DHT22;15471;51.166;4.470;2023-05-27T00:20:36;11.60;99.90
28189;DHT22;15471;51.166;4.470;2023-05-27T00:23:02;11.50;99.90
28189;DHT22;15471;51.166;4.470;2023-05-27T00:25:28;11.40;99.90
28189;DHT22;15471;51.166;4.470;2023-05-27T00:27:54;11.30;99.90
28189;DHT22;15471;51.166;4.470;2023-05-27T00:30:20;11.30;99.90
28189;DHT22;15471;51.166;4.470;2023-05-27T00:32:46;11.40;99.90
28189;DHT22;15471;51.166;4.470;2023-05-27T00:35:12;11.30;99.90
28189;DHT22;15471;51.166;4.470;2023-05-27T00:37:38;11.20;99.90
28189;DHT22;15471;51.166;4.470;2023-05-27T00:40:06;11.30;99.90
28189;DHT22;15471;51.166;4.470;2023-05-27T00:42:34;11.20;99.90
28189;DHT22;15471;51.166;4.470;2023-05-27T00:45:03;11.10;99.90
28189;DHT22;15471;51.166;4.470;2023-05-27T00:47:31;11.00;99.90
28189;DHT22;15471;51.166;4.470;2023-05-27T00:49:58;11.00;99.90
28189;DHT22;15471;51.166;4.470;2023-05-27T00:52:25;11.00;99.90
28189;DHT22;15471;51.166;4.470;2023-05-27T00:54:53;10.90;99.90
28189;DHT22;15471;51.166;4.470;2023-05-27T00:57:22;10.90;99.90
28189;DHT22;15471;51.166;4.470;2023-05-27T00:59:48;10.90;99.90
28189;DHT22;15471;51.166;4.470;2023-05-27T01:02:14;10.80;99.90
28189;DHT22;15471;51.166;4.470;2023-05-27T01:04:41;10.90;99.90
28189;DHT22;15471;51.166;4.470;2023-05-27T01:10:02;10.80;99.90
28189;DHT22;15471;51.166;4.470;2023-05-27T01:12:59;10.70;99.90
28189;DHT22;15471;51.166;4.470;2023-05-27T01:15:22;10.70;99.90
28189;DHT22;15471;51.166;4.470;2023-05-27T01:17:52;10.60;99.90
28189;DHT22;15471;51.166;4.470;2023-05-27T01:20:20;10.70;99.90
28189;DHT22;15471;51.166;4.470;2023-05-27T01:22:49;10.70;99.90
28189;DHT22;15471;51.166;4.470;2023-05-27T01:25:17;10.80;99.90
28189;DHT22;15471;51.166;4.470;2023-05-27T01:27:45;10.70;99.90
28189;DHT22;15471;51.166;4.470;2023-05-27T01:30:11;10.70;99.90
28189;DHT22;15471;51.166;4.470;2023-05-27T01:35:07;10.70;99.90
28189;DHT22;15471;51.166;4.470;2023-05-27T01:37:40;10.70;99.90
28189;DHT22;15471;51.166;4.470;2023-05-27T01:40:08;10.60;99.90
28189;DHT22;15471;51.166;4.470;2023-05-27T01:42:39;10.70;99.90
28189;DHT22;15471;51.166;4.470;2023-05-27T01:45:07;10.60;99.90
28189;DHT22;15471;51.166;4.470;2023-05-27T01:47:33;10.60;99.90
28189;DHT22;15471;51.166;4.470;2023-05-27T01:50:02;10.60;99.90
28189;DHT22;15471;51.166;4.470;2023-05-27T01:52:28;10.60;99.90
28189;DHT22;15471;51.166;4.470;2023-05-27T01:54:54;10.50;99.90
28189;DHT22;15471;51.166;4.470;2023-05-27T01:57:21;10.50;99.90
28189;DHT22;15471;51.166;4.470;2023-05-27T01:59:47;10.40;99.90
28189;DHT22;15471;51.166;4.470;2023-05-27T02:02:12;10.40;99.90
28189;DHT22;15471;51.166;4.470;2023-05-27T02:04:38;10.30;99.90
28189;DHT22;15471;51.166;4.470;2023-05-27T02:07:04;10.30;99.90
28189;DHT22;15471;51.166;4.470;2023-05-27T02:09:31;10.20;99.90
28189;DHT22;15471;51.166;4.470;2023-05-27T02:11:57;10.30;99.90
28189;DHT22;15471;51.166;4.470;2023-05-27T02:14:22;10.30;99.90
28189;DHT22;15471;51.166;4.470;2023-05-27T02:16:48;10.30;99.90
28189;DHT22;15471;51.166;4.470;2023-05-27T02:19:17;10.20;99.90
28189;DHT22;15471;51.166;4.470;2023-05-27T02:21:42;10.10;99.90
28189;DHT22;15471;51.166;4.470;2023-05-27T02:24:11;10.20;99.90
28189;DHT22;15471;51.166;4.470;2023-05-27T02:26:40;10.10;99.90
28189;DHT22;15471;51.166;4.470;2023-05-27T02:29:07;10.10;99.90
28189;DHT22;15471;51.166;4.470;2023-05-27T02:31:32;10.00;99.90
28189;DHT22;15471;51.166;4.470;2023-05-27T02:33:58;10.10;99.90
28189;DHT22;15471;51.166;4.470;2023-05-27T02:36:24;10.00;99.90
28189;DHT22;15471;51.166;4.470;2023-05-27T02:38:51;10.00;99.90
28189;DHT22;15471;51.166;4.470;2023-05-27T02:41:16;10.00;99.90
28189;DHT22;15471;51.166;4.470;2023-05-27T02:43:43;9.90;99.90
28189;DHT22;15471;51.166;4.470;2023-05-27T02:46:08;9.90;99.90
28189;DHT22;15471;51.166;4.470;2023-05-27T02:48:34;9.90;99.90
28189;DHT22;15471;51.166;4.470;2023-05-27T02:51:00;9.90;99.90
28189;DHT22;15471;51.166;4.470;2023-05-27T02:53:26;9.90;99.90
28189;DHT22;15471;51.166;4.470;2023-05-27T02:55:52;9.90;99.90
28189;DHT22;15471;51.166;4.470;2023-05-27T02:58:18;9.90;99.90
28189;DHT22;15471;51.166;4.470;2023-05-27T03:00:44;9.80;99.90
28189;DHT22;15471;51.166;4.470;2023-05-27T03:03:09;9.70;99.90
28189;DHT22;15471;51.166;4.470;2023-05-27T03:05:35;9.70;99.90
28189;DHT22;15471;51.166;4.470;2023-05-27T03:08:02;9.60;99.90
28189;DHT22;15471;51.166;4.470;2023-05-27T03:10:28;9.60;99.90
28189;DHT22;15471;51.166;4.470;2023-05-27T03:12:54;9.70;99.90
28189;DHT22;15471;51.166;4.470;2023-05-27T03:15:23;9.80;99.90
28189;DHT22;15471;51.166;4.470;2023-05-27T03:17:50;9.70;99.90
28189;DHT22;15471;51.166;4.470;2023-05-27T03:20:16;9.70;99.90
28189;DHT22;15471;51.166;4.470;2023-05-27T03:22:44;9.50;99.90
28189;DHT22;15471;51.166;4.470;2023-05-27T03:25:10;9.60;99.90
28189;DHT22;15471;51.166;4.470;2023-05-27T03:27:38;9.50;99.90
28189;DHT22;15471;51.166;4.470;2023-05-27T03:30:08;9.50;99.90
28189;DHT22;15471;51.166;4.470;2023-05-27T03:32:38;9.50;99.90
28189;DHT22;15471;51.166;4.470;2023-05-27T03:35:05;9.60;99.90
28189;DHT22;15471;51.166;4.470;2023-05-27T03:37:32;9.50;99.90
28189;DHT22;15471;51.166;4.470;2023-05-27T03:40:02;9.50;99.90
28189;DHT22;15471;51.166;4.470;2023-05-27T03:42:31;9.50;99.90
28189;DHT22;15471;51.166;4.470;2023-05-27T03:44:58;9.50;99.90
28189;DHT22;15471;51.166;4.470;2023-05-27T03:47:26;9.40;99.90
28189;DHT22;15471;51.166;4.470;2023-05-27T03:49:52;9.40;99.90
28189;DHT22;15471;51.166;4.470;2023-05-27T03:52:18;9.30;99.90
28189;DHT22;15471;51.166;4.470;2023-05-27T03:54:44;9.20;99.90
28189;DHT22;15471;51.166;4.470;2023-05-27T03:57:12;9.30;99.90
28189;DHT22;15471;51.166;4.470;2023-05-27T03:59:38;9.20;99.90
28189;DHT22;15471;51.166;4.470;2023-05-27T04:02:04;9.30;99.90
28189;DHT22;15471;51.166;4.470;2023-05-27T04:04:30;9.30;99.90
28189;DHT22;15471;51.166;4.470;2023-05-27T04:06:56;9.20;99.90
28189;DHT22;15471;51.166;4.470;2023-05-27T04:09:22;9.20;99.90
28189;DHT22;15471;51.166;4.470;2023-05-27T04:11:48;9.20;99.90
28189;DHT22;15471;51.166;4.470;2023-05-27T04:14:14;9.20;99.90
28189;DHT22;15471;51.166;4.470;2023-05-27T04:16:40;9.20;99.90
28189;DHT22;15471;51.166;4.470;2023-05-27T04:19:07;9.20;99.90
28189;DHT22;15471;51.166;4.470;2023-05-27T04:21:33;9.30;99.90
28189;DHT22;15471;51.166;4.470;2023-05-27T04:24:02;9.30;99.90
28189;DHT22;15471;51.166;4.470;2023-05-27T04:26:28;9.30;99.90
28189;DHT22;15471;51.166;4.470;2023-05-27T04:28:54;9.30;99.90
28189;DHT22;15471;51.166;4.470;2023-05-27T04:31:21;9.40;99.90
28189;DHT22;15471;51.166;4.470;2023-05-27T04:33:58;9.30;99.90
28189;DHT22;15471;51.166;4.470;2023-05-27T04:36:24;9.30;99.90
28189;DHT22;15471;51.166;4.470;2023-05-27T04:39:01;9.30;99.90
28189;DHT22;15471;51.166;4.470;2023-05-27T04:41:30;9.40;99.90
28189;DHT22;15471;51.166;4.470;2023-05-27T04:44:00;9.40;99.90
28189;DHT22;15471;51.166;4.470;2023-05-27T04:46:31;9.30;99.90
28189;DHT22;15471;51.166;4.470;2023-05-27T04:48:56;9.30;99.90
28189;DHT22;15471;51.166;4.470;2023-05-27T04:51:22;9.40;99.90
28189;DHT22;15471;51.166;4.470;2023-05-27T04:53:49;9.50;99.90
28189;DHT22;15471;51.166;4.470;2023-05-27T04:56:18;9.60;99.90
28189;DHT22;15471;51.166;4.470;2023-05-27T04:58:44;9.70;99.90
28189;DHT22;15471;51.166;4.470;2023-05-27T05:01:13;9.80;99.90
28189;DHT22;15471;51.166;4.470;2023-05-27T05:03:54;9.80;99.90
28189;DHT22;15471;51.166;4.470;2023-05-27T05:06:52;9.80;99.90
28189;DHT22;15471;51.166;4.470;2023-05-27T05:09:21;9.70;99.90
28189;DHT22;15471;51.166;4.470;2023-05-27T05:11:48;9.70;99.90
28189;DHT22;15471;51.166;4.470;2023-05-27T05:14:14;9.80;99.90
28189;DHT22;15471;51.166;4.470;2023-05-27T05:16:40;9.80;99.90
28189;DHT22;15471;51.166;4.470;2023-05-27T05:19:07;9.90;99.90
28189;DHT22;15471;51.166;4.470;2023-05-27T05:21:36;10.10;99.90
28189;DHT22;15471;51.166;4.470;2023-05-27T05:24:04;10.20;99.90
28189;DHT22;15471;51.166;4.470;2023-05-27T05:26:30;10.20;99.90
28189;DHT22;15471;51.166;4.470;2023-05-27T05:28:58;10.20;99.90
28189;DHT22;15471;51.166;4.470;2023-05-27T05:31:24;10.20;99.90
28189;DHT22;15471;51.166;4.470;2023-05-27T05:33:50;10.30;99.90
28189;DHT22;15471;51.166;4.470;2023-05-27T05:36:16;10.20;99.90
28189;DHT22;15471;51.166;4.470;2023-05-27T05:38:51;10.30;99.90
28189;DHT22;15471;51.166;4.470;2023-05-27T05:41:17;10.50;99.90
28189;DHT22;15471;51.166;4.470;2023-05-27T05:43:44;10.60;99.90
28189;DHT22;15471;51.166;4.470;2023-05-27T05:46:09;10.50;99.90
28189;DHT22;15471;51.166;4.470;2023-05-27T05:48:36;10.60;99.90
28189;DHT22;15471;51.166;4.470;2023-05-27T05:51:02;10.80;99.90
28189;DHT22;15471;51.166;4.470;2023-05-27T05:53:29;10.90;99.90
28189;DHT22;15471;51.166;4.470;2023-05-27T05:55:57;10.90;99.90
28189;DHT22;15471;51.166;4.470;2023-05-27T05:58:23;10.80;99.90
28189;DHT22;15471;51.166;4.470;2023-05-27T06:00:50;11.00;99.90
28189;DHT22;15471;51.166;4.470;2023-05-27T06:03:45;11.00;99.90
28189;DHT22;15471;51.166;4.470;2023-05-27T06:06:32;11.20;99.90
28189;DHT22;15471;51.166;4.470;2023-05-27T06:09:22;11.30;99.90
28189;DHT22;15471;51.166;4.470;2023-05-27T06:11:49;11.40;99.90
28189;DHT22;15471;51.166;4.470;2023-05-27T06:14:15;11.50;99.90
28189;DHT22;15471;51.166;4.470;2023-05-27T06:16:42;11.70;99.90
28189;DHT22;15471;51.166;4.470;2023-05-27T06:19:10;11.80;99.90
28189;DHT22;15471;51.166;4.470;2023-05-27T06:21:35;11.70;99.90
28189;DHT22;15471;51.166;4.470;2023-05-27T06:24:20;11.70;99.90
28189;DHT22;15471;51.166;4.470;2023-05-27T06:26:52;11.70;99.90
28189;DHT22;15471;51.166;4.470;2023-05-27T06:29:18;11.80;99.90
28189;DHT22;15471;51.166;4.470;2023-05-27T06:31:44;12.00;99.90
28189;DHT22;15471;51.166;4.470;2023-05-27T06:34:12;12.10;99.90
28189;DHT22;15471;51.166;4.470;2023-05-27T06:36:37;12.30;99.90
28189;DHT22;15471;51.166;4.470;2023-05-27T06:39:03;12.50;99.90
28189;DHT22;15471;51.166;4.470;2023-05-27T06:41:32;12.50;99.90
28189;DHT22;15471;51.166;4.470;2023-05-27T06:44:16;12.70;99.90
28189;DHT22;15471;51.166;4.470;2023-05-27T06:46:58;12.70;99.90
28189;DHT22;15471;51.166;4.470;2023-05-27T06:49:28;12.70;99.90
28189;DHT22;15471;51.166;4.470;2023-05-27T06:51:55;12.80;99.90
28189;DHT22;15471;51.166;4.470;2023-05-27T06:54:22;12.90;99.90
28189;DHT22;15471;51.166;4.470;2023-05-27T06:56:49;13.00;99.90
28189;DHT22;15471;51.166;4.470;2023-05-27T06:59:50;13.20;99.90
28189;DHT22;15471;51.166;4.470;2023-05-27T07:02:16;13.20;99.90
28189;DHT22;15471;51.166;4.470;2023-05-27T07:04:42;13.30;99.90
28189;DHT22;15471;51.166;4.470;2023-05-27T07:07:09;13.30;99.90
28189;DHT22;15471;51.166;4.470;2023-05-27T07:09:35;13.60;99.90
28189;DHT22;15471;51.166;4.470;2023-05-27T07:12:02;13.80;99.90
28189;DHT22;15471;51.166;4.470;2023-05-27T07:14:50;13.80;99.90
28189;DHT22;15471;51.166;4.470;2023-05-27T07:17:17;13.90;99.90
28189;DHT22;15471;51.166;4.470;2023-05-27T07:19:43;14.10;99.90
28189;DHT22;15471;51.166;4.470;2023-05-27T07:22:14;14.30;99.90
28189;DHT22;15471;51.166;4.470;2023-05-27T07:24:40;14.40;99.90
28189;DHT22;15471;51.166;4.470;2023-05-27T07:27:06;14.50;99.90
28189;DHT22;15471;51.166;4.470;2023-05-27T07:29:34;14.70;99.90
28189;DHT22;15471;51.166;4.470;2023-05-27T07:32:12;14.80;99.90
28189;DHT22;15471;51.166;4.470;2023-05-27T07:34:38;14.70;99.90
28189;DHT22;15471;51.166;4.470;2023-05-27T07:37:05;14.60;99.90
28189;DHT22;15471;51.166;4.470;2023-05-27T07:39:30;14.50;99.90
28189;DHT22;15471;51.166;4.470;2023-05-27T07:41:56;14.70;99.90
28189;DHT22;15471;51.166;4.470;2023-05-27T07:44:23;14.80;99.90
28189;DHT22;15471;51.166;4.470;2023-05-27T07:46:49;14.60;99.90
28189;DHT22;15471;51.166;4.470;2023-05-27T07:49:15;14.50;99.90
28189;DHT22;15471;51.166;4.470;2023-05-27T07:52:00;14.70;99.90
28189;DHT22;15471;51.166;4.470;2023-05-27T07:54:25;15.00;99.90
28189;DHT22;15471;51.166;4.470;2023-05-27T07:56:52;15.30;99.90
28189;DHT22;15471;51.166;4.470;2023-05-27T07:59:19;15.50;99.90
28189;DHT22;15471;51.166;4.470;2023-05-27T08:01:45;15.50;99.90
28189;DHT22;15471;51.166;4.470;2023-05-27T08:04:11;15.50;99.90
28189;DHT22;15471;51.166;4.470;2023-05-27T08:06:52;15.60;99.90
28189;DHT22;15471;51.166;4.470;2023-05-27T08:09:41;15.70;99.90
28189;DHT22;15471;51.166;4.470;2023-05-27T08:12:25;15.50;99.90
28189;DHT22;15471;51.166;4.470;2023-05-27T08:15:00;15.50;99.90
28189;DHT22;15471;51.166;4.470;2023-05-27T08:17:38;15.60;99.90
28189;DHT22;15471;51.166;4.470;2023-05-27T08:20:17;15.80;99.90
28189;DHT22;15471;51.166;4.470;2023-05-27T08:23:02;15.90;99.90
28189;DHT22;15471;51.166;4.470;2023-05-27T08:25:57;16.20;99.90
28189;DHT22;15471;51.166;4.470;2023-05-27T08:28:36;16.50;99.90
28189;DHT22;15471;51.166;4.470;2023-05-27T08:31:22;16.50;99.90
28189;DHT22;15471;51.166;4.470;2023-05-27T08:33:53;16.70;99.90
28189;DHT22;15471;51.166;4.470;2023-05-27T08:36:19;17.00;99.90
28189;DHT22;15471;51.166;4.470;2023-05-27T08:38:47;16.90;99.90
28189;DHT22;15471;51.166;4.470;2023-05-27T08:41:19;18.20;99.90
28189;DHT22;15471;51.166;4.470;2023-05-27T08:43:46;20.20;99.90
28189;DHT22;15471;51.166;4.470;2023-05-27T08:46:13;21.70;99.90
28189;DHT22;15471;51.166;4.470;2023-05-27T08:48:40;23.30;99.90
28189;DHT22;15471;51.166;4.470;2023-05-27T08:51:09;24.30;98.30
28189;DHT22;15471;51.166;4.470;2023-05-27T08:53:37;25.00;94.70
28189;DHT22;15471;51.166;4.470;2023-05-27T08:56:05;25.40;92.50
28189;DHT22;15471;51.166;4.470;2023-05-27T08:58:33;26.40;89.00
28189;DHT22;15471;51.166;4.470;2023-05-27T09:01:00;26.60;80.10
28189;DHT22;15471;51.166;4.470;2023-05-27T09:03:27;25.70;79.80
28189;DHT22;15471;51.166;4.470;2023-05-27T09:05:55;26.80;79.60
28189;DHT22;15471;51.166;4.470;2023-05-27T09:08:21;27.10;75.80
28189;DHT22;15471;51.166;4.470;2023-05-27T09:10:50;28.20;71.40
28189;DHT22;15471;51.166;4.470;2023-05-27T09:13:26;28.40;66.70
28189;DHT22;15471;51.166;4.470;2023-05-27T09:16:04;29.20;65.60
28189;DHT22;15471;51.166;4.470;2023-05-27T09:18:32;29.60;63.50
28189;DHT22;15471;51.166;4.470;2023-05-27T09:20:59;29.90;60.30
28189;DHT22;15471;51.166;4.470;2023-05-27T09:23:25;30.10;59.50
28189;DHT22;15471;51.166;4.470;2023-05-27T09:25:52;30.20;57.40
28189;DHT22;15471;51.166;4.470;2023-05-27T09:28:25;29.10;56.60
28189;DHT22;15471;51.166;4.470;2023-05-27T09:31:04;27.30;60.50
28189;DHT22;15471;51.166;4.470;2023-05-27T09:33:32;26.80;61.30
28189;DHT22;15471;51.166;4.470;2023-05-27T09:36:00;27.40;62.20
28189;DHT22;15471;51.166;4.470;2023-05-27T09:38:36;27.90;60.60
28189;DHT22;15471;51.166;4.470;2023-05-27T09:41:03;27.80;60.30
28189;DHT22;15471;51.166;4.470;2023-05-27T09:43:29;27.80;58.00
28189;DHT22;15471;51.166;4.470;2023-05-27T09:46:03;27.20;61.10
28189;DHT22;15471;51.166;4.470;2023-05-27T09:48:32;27.00;61.70
28189;DHT22;15471;51.166;4.470;2023-05-27T09:50:59;26.20;63.20
28189;DHT22;15471;51.166;4.470;2023-05-27T09:53:26;26.00;66.60
28189;DHT22;15471;51.166;4.470;2023-05-27T09:55:56;26.40;64.40
28189;DHT22;15471;51.166;4.470;2023-05-27T09:58:23;26.20;61.80
28189;DHT22;15471;51.166;4.470;2023-05-27T10:00:53;26.00;63.70
28189;DHT22;15471;51.166;4.470;2023-05-27T10:03:21;25.70;63.80
28189;DHT22;15471;51.166;4.470;2023-05-27T10:05:51;24.90;63.80
28189;DHT22;15471;51.166;4.470;2023-05-27T10:08:24;24.20;66.10
28189;DHT22;15471;51.166;4.470;2023-05-27T10:10:51;24.20;67.50
28189;DHT22;15471;51.166;4.470;2023-05-27T10:13:19;24.20;68.50
28189;DHT22;15471;51.166;4.470;2023-05-27T10:15:47;24.40;67.90
28189;DHT22;15471;51.166;4.470;2023-05-27T10:18:28;23.60;68.50
28189;DHT22;15471;51.166;4.470;2023-05-27T10:20:57;23.50;70.60
28189;DHT22;15471;51.166;4.470;2023-05-27T10:23:28;23.30;69.30
28189;DHT22;15471;51.166;4.470;2023-05-27T10:26:07;23.20;71.80
28189;DHT22;15471;51.166;4.470;2023-05-27T10:28:38;23.30;73.70
28189;DHT22;15471;51.166;4.470;2023-05-27T10:31:09;23.60;71.80
28189;DHT22;15471;51.166;4.470;2023-05-27T10:33:43;23.60;70.00
28189;DHT22;15471;51.166;4.470;2023-05-27T10:36:14;23.80;71.50
28189;DHT22;15471;51.166;4.470;2023-05-27T10:39:17;23.90;69.80
28189;DHT22;15471;51.166;4.470;2023-05-27T10:44:10;23.10;71.70
28189;DHT22;15471;51.166;4.470;2023-05-27T10:46:43;22.60;71.40
28189;DHT22;15471;51.166;4.470;2023-05-27T10:49:22;22.60;71.70
28189;DHT22;15471;51.166;4.470;2023-05-27T10:51:48;22.50;73.10
28189;DHT22;15471;51.166;4.470;2023-05-27T10:54:18;22.50;74.10
28189;DHT22;15471;51.166;4.470;2023-05-27T10:56:53;22.20;75.50
28189;DHT22;15471;51.166;4.470;2023-05-27T10:59:22;21.90;77.50
28189;DHT22;15471;51.166;4.470;2023-05-27T11:01:52;22.00;78.00
28189;DHT22;15471;51.166;4.470;2023-05-27T11:04:19;22.20;77.20
28189;DHT22;15471;51.166;4.470;2023-05-27T11:06:58;22.20;75.40
28189;DHT22;15471;51.166;4.470;2023-05-27T11:09:25;21.80;76.70
28189;DHT22;15471;51.166;4.470;2023-05-27T11:11:52;21.70;75.90
28189;DHT22;15471;51.166;4.470;2023-05-27T11:14:18;21.60;75.90
28189;DHT22;15471;51.166;4.470;2023-05-27T11:16:50;21.70;75.40
28189;DHT22;15471;51.166;4.470;2023-05-27T11:19:19;21.70;76.40
28189;DHT22;15471;51.166;4.470;2023-05-27T11:21:46;21.90;75.70
28189;DHT22;15471;51.166;4.470;2023-05-27T11:24:19;21.90;76.50
28189;DHT22;15471;51.166;4.470;2023-05-27T11:26:47;22.10;76.50
28189;DHT22;15471;51.166;4.470;2023-05-27T11:29:14;22.10;75.40
28189;DHT22;15471;51.166;4.470;2023-05-27T11:31:40;22.30;76.00
28189;DHT22;15471;51.166;4.470;2023-05-27T11:34:14;22.20;76.50
28189;DHT22;15471;51.166;4.470;2023-05-27T11:36:41;22.30;76.50
28189;DHT22;15471;51.166;4.470;2023-05-27T11:39:11;22.40;75.50
28189;DHT22;15471;51.166;4.470;2023-05-27T11:41:53;22.50;74.50
28189;DHT22;15471;51.166;4.470;2023-05-27T11:44:21;22.60;75.20
28189;DHT22;15471;51.166;4.470;2023-05-27T11:46:48;22.30;75.60
28189;DHT22;15471;51.166;4.470;2023-05-27T11:49:16;22.20;74.80
28189;DHT22;15471;51.166;4.470;2023-05-27T11:51:46;22.30;73.10
28189;DHT22;15471;51.166;4.470;2023-05-27T11:54:30;22.20;72.90
28189;DHT22;15471;51.166;4.470;2023-05-27T11:56:59;22.20;71.50
28189;DHT22;15471;51.166;4.470;2023-05-27T11:59:25;22.20;72.70
28189;DHT22;15471;51.166;4.470;2023-05-27T12:01:52;22.30;73.40
28189;DHT22;15471;51.166;4.470;2023-05-27T12:04:19;22.40;72.50
28189;DHT22;15471;51.166;4.470;2023-05-27T12:06:46;22.40;71.80
28189;DHT22;15471;51.166;4.470;2023-05-27T12:09:13;22.40;75.20
28189;DHT22;15471;51.166;4.470;2023-05-27T12:11:39;22.40;71.90
28189;DHT22;15471;51.166;4.470;2023-05-27T12:14:05;22.40;70.20
28189;DHT22;15471;51.166;4.470;2023-05-27T12:16:31;22.40;68.80
28189;DHT22;15471;51.166;4.470;2023-05-27T12:18:58;22.50;71.90
28189;DHT22;15471;51.166;4.470;2023-05-27T12:21:24;22.30;73.20
28189;DHT22;15471;51.166;4.470;2023-05-27T12:23:51;22.30;72.60
28189;DHT22;15471;51.166;4.470;2023-05-27T12:26:17;22.30;72.50
28189;DHT22;15471;51.166;4.470;2023-05-27T12:28:44;22.40;74.40
28189;DHT22;15471;51.166;4.470;2023-05-27T12:31:10;22.50;72.80
28189;DHT22;15471;51.166;4.470;2023-05-27T12:33:35;22.80;71.70
28189;DHT22;15471;51.166;4.470;2023-05-27T12:36:02;23.10;69.80
28189;DHT22;15471;51.166;4.470;2023-05-27T12:38:31;23.30;67.40
28189;DHT22;15471;51.166;4.470;2023-05-27T12:40:57;23.50;66.50
28189;DHT22;15471;51.166;4.470;2023-05-27T12:46:14;23.10;68.10
28189;DHT22;15471;51.166;4.470;2023-05-27T12:48:40;23.10;68.60
28189;DHT22;15471;51.166;4.470;2023-05-27T12:51:06;23.00;66.70
28189;DHT22;15471;51.166;4.470;2023-05-27T12:53:32;22.90;69.00
28189;DHT22;15471;51.166;4.470;2023-05-27T12:55:58;22.90;67.50
28189;DHT22;15471;51.166;4.470;2023-05-27T12:58:24;23.20;67.30
28189;DHT22;15471;51.166;4.470;2023-05-27T13:00:50;23.40;66.20
28189;DHT22;15471;51.166;4.470;2023-05-27T13:03:16;23.70;65.20
28189;DHT22;15471;51.166;4.470;2023-05-27T13:05:42;24.00;63.70
28189;DHT22;15471;51.166;4.470;2023-05-27T13:08:08;24.00;63.20
28189;DHT22;15471;51.166;4.470;2023-05-27T13:10:34;23.90;63.70
28189;DHT22;15471;51.166;4.470;2023-05-27T13:13:00;24.00;61.80
28189;DHT22;15471;51.166;4.470;2023-05-27T13:15:28;24.20;62.70
28189;DHT22;15471;51.166;4.470;2023-05-27T13:17:54;24.30;63.50
28189;DHT22;15471;51.166;4.470;2023-05-27T13:20:22;24.50;59.50
28189;DHT22;15471;51.166;4.470;2023-05-27T13:22:48;24.40;60.10
28189;DHT22;15471;51.166;4.470;2023-05-27T13:25:15;24.10;61.30
28189;DHT22;15471;51.166;4.470;2023-05-27T13:27:42;24.30;60.80
28189;DHT22;15471;51.166;4.470;2023-05-27T13:30:30;24.40;60.90
28189;DHT22;15471;51.166;4.470;2023-05-27T13:33:02;24.40;60.40
28189;DHT22;15471;51.166;4.470;2023-05-27T13:35:29;24.20;61.50
28189;DHT22;15471;51.166;4.470;2023-05-27T13:37:55;24.00;60.60
28189;DHT22;15471;51.166;4.470;2023-05-27T13:40:21;24.10;61.50
28189;DHT22;15471;51.166;4.470;2023-05-27T13:42:48;24.30;62.00
28189;DHT22;15471;51.166;4.470;2023-05-27T13:45:18;24.60;62.10
28189;DHT22;15471;51.166;4.470;2023-05-27T13:47:44;24.70;59.10
28189;DHT22;15471;51.166;4.470;2023-05-27T13:50:11;24.60;61.50
28189;DHT22;15471;51.166;4.470;2023-05-27T13:52:37;24.30;59.90
28189;DHT22;15471;51.166;4.470;2023-05-27T13:55:06;24.40;59.80
28189;DHT22;15471;51.166;4.470;2023-05-27T13:57:32;24.70;59.50
28189;DHT22;15471;51.166;4.470;2023-05-27T13:59:59;24.90;59.40
28189;DHT22;15471;51.166;4.470;2023-05-27T14:02:26;25.10;59.10
28189;DHT22;15471;51.166;4.470;2023-05-27T14:04:52;25.20;58.90
28189;DHT22;15471;51.166;4.470;2023-05-27T14:07:18;25.30;58.00
28189;DHT22;15471;51.166;4.470;2023-05-27T14:09:46;25.20;58.00
28189;DHT22;15471;51.166;4.470;2023-05-27T14:12:13;24.90;58.20
28189;DHT22;15471;51.166;4.470;2023-05-27T14:14:40;25.00;58.70
28189;DHT22;15471;51.166;4.470;2023-05-27T14:17:11;25.10;58.70
28189;DHT22;15471;51.166;4.470;2023-05-27T14:20:00;25.30;59.20
28189;DHT22;15471;51.166;4.470;2023-05-27T14:22:26;25.20;58.10
28189;DHT22;15471;51.166;4.470;2023-05-27T14:24:53;25.10;57.40
28189;DHT22;15471;51.166;4.470;2023-05-27T14:27:20;25.10;56.80
28189;DHT22;15471;51.166;4.470;2023-05-27T14:29:46;24.90;57.10
28189;DHT22;15471;51.166;4.470;2023-05-27T14:32:15;25.20;57.70
28189;DHT22;15471;51.166;4.470;2023-05-27T14:34:41;25.20;56.20
28189;DHT22;15471;51.166;4.470;2023-05-27T14:37:07;25.10;56.20
28189;DHT22;15471;51.166;4.470;2023-05-27T14:39:33;25.30;57.10
28189;DHT22;15471;51.166;4.470;2023-05-27T14:41:59;25.40;56.40
28189;DHT22;15471;51.166;4.470;2023-05-27T14:44:25;25.60;56.40
28189;DHT22;15471;51.166;4.470;2023-05-27T14:46:52;25.80;56.50
28189;DHT22;15471;51.166;4.470;2023-05-27T14:49:20;25.80;54.70
28189;DHT22;15471;51.166;4.470;2023-05-27T14:51:49;25.70;56.00
28189;DHT22;15471;51.166;4.470;2023-05-27T14:54:15;25.50;55.40
28189;DHT22;15471;51.166;4.470;2023-05-27T14:56:41;25.50;58.10
28189;DHT22;15471;51.166;4.470;2023-05-27T14:59:07;25.60;57.20
28189;DHT22;15471;51.166;4.470;2023-05-27T15:01:37;26.00;56.40
28189;DHT22;15471;51.166;4.470;2023-05-27T15:04:04;26.30;54.80
28189;DHT22;15471;51.166;4.470;2023-05-27T15:06:31;26.70;54.40
28189;DHT22;15471;51.166;4.470;2023-05-27T15:09:00;26.90;53.60
28189;DHT22;15471;51.166;4.470;2023-05-27T15:11:26;27.40;54.70
28189;DHT22;15471;51.166;4.470;2023-05-27T15:13:52;29.00;49.00
28189;DHT22;15471;51.166;4.470;2023-05-27T15:16:21;31.30;46.10
28189;DHT22;15471;51.166;4.470;2023-05-27T15:18:47;32.90;41.70
28189;DHT22;15471;51.166;4.470;2023-05-27T15:21:14;34.00;39.80
28189;DHT22;15471;51.166;4.470;2023-05-27T15:23:40;35.60;38.50
28189;DHT22;15471;51.166;4.470;2023-05-27T15:26:11;36.00;36.90
28189;DHT22;15471;51.166;4.470;2023-05-27T15:28:37;36.10;35.90
28189;DHT22;15471;51.166;4.470;2023-05-27T15:31:03;36.00;35.70
28189;DHT22;15471;51.166;4.470;2023-05-27T15:33:29;37.00;35.40
28189;DHT22;15471;51.166;4.470;2023-05-27T15:35:56;37.70;34.50
28189;DHT22;15471;51.166;4.470;2023-05-27T15:38:22;39.20;32.90
28189;DHT22;15471;51.166;4.470;2023-05-27T15:40:49;40.10;31.40
28189;DHT22;15471;51.166;4.470;2023-05-27T15:43:15;41.00;30.70
28189;DHT22;15471;51.166;4.470;2023-05-27T15:45:42;41.00;29.90
28189;DHT22;15471;51.166;4.470;2023-05-27T15:48:09;41.70;29.00
28189;DHT22;15471;51.166;4.470;2023-05-27T15:50:38;42.20;28.10
28189;DHT22;15471;51.166;4.470;2023-05-27T15:53:08;43.00;27.50